Time;durP1;ratioP1;P1;durP2;ratioP2;P2;SDS_P1;SDS_P2;PMS_P1;PMS_P2;Temp;Humidity;BMP_temperature;BMP_pressure;BME280_temperature;BME280_humidity;BME280_pressure;Samples;Min_cycle;Max_cycle;Signal;HPM_P1;HPM_P2
2021/03/17 15:16:34;;;;;;;14.38;11.10;;;;;;;4.61;71.71;92797.50;5118352;23;20774;31
2021/03/17 15:19:01;;;;;;;12.50;10.30;;;;;;;4.48;71.07;92782.47;4901881;28;20052;-81
2021/03/17 15:21:32;;;;;;;13.57;11.05;;;;;;;4.33;71.40;92791.22;4919088;29;20163;-89
2021/03/17 15:23:58;;;;;;;15.13;11.90;;;;;;;4.59;71.85;92789.97;4874726;29;20084;-83
2021/03/17 15:26:26;;;;;;;12.57;10.80;;;;;;;4.53;71.35;92806.75;4912138;29;20056;-83
2021/03/17 15:28:58;;;;;;;11.88;9.88;;;;;;;4.50;70.83;92786.34;4909648;28;20066;-84
2021/03/17 15:31:29;;;;;;;13.38;11.07;;;;;;;4.11;72.20;92772.56;4880099;29;20135;-85
2021/03/17 15:33:57;;;;;;;14.05;9.77;;;;;;;4.45;71.58;92798.72;4897473;29;20046;-82
2021/03/17 15:36:23;;;;;;;16.02;13.52;;;;;;;4.34;71.56;92771.88;4898920;29;20047;-83
2021/03/17 15:38:54;;;;;;;15.95;11.85;;;;;;;3.97;71.30;92750.72;4885790;29;20050;-86
2021/03/17 15:41:20;;;;;;;15.45;11.80;;;;;;;4.21;71.66;92793.41;4895929;28;20058;-84
2021/03/17 15:43:46;;;;;;;16.90;13.73;;;;;;;4.38;72.38;92809.50;4911324;28;20043;-83
2021/03/17 15:46:43;;;;;;;14.20;11.82;;;;;;;4.53;71.62;92806.75;4873773;29;20506;-85
2021/03/17 15:49:14;;;;;;;15.25;12.52;;;;;;;4.57;71.35;92820.06;4884571;29;20040;-84
2021/03/17 15:51:45;;;;;;;14.70;11.40;;;;;;;4.39;70.85;92790.13;4912387;29;20035;-85
2021/03/17 15:54:11;;;;;;;14.45;12.25;;;;;;;4.33;71.01;92791.22;4846819;28;20060;-84
2021/03/17 15:56:36;;;;;;;13.68;10.82;;;;;;;4.27;71.29;92797.53;4906048;29;20044;-86
2021/03/17 15:59:02;;;;;;;17.70;12.07;;;;;;;3.93;71.49;92761.72;4865874;28;20119;-84
2021/03/17 16:01:29;;;;;;;16.10;11.80;;;;;;;3.88;71.86;92764.38;4871572;28;20055;-84
2021/03/17 16:04:11;;;;;;;16.92;12.07;;;;;;;3.75;73.06;92759.75;4890183;29;20067;-83
2021/03/17 16:06:39;;;;;;;20.83;13.40;;;;;;;3.99;73.95;92796.44;4907975;29;20044;-83
2021/03/17 16:09:05;;;;;;;17.73;13.18;;;;;;;4.02;74.14;92800.34;4869884;29;20542;-84
2021/03/17 16:11:33;;;;;;;18.92;13.52;;;;;;;3.84;74.54;92770.41;4865750;29;20056;-89
2021/03/17 16:14:04;;;;;;;17.27;14.38;;;;;;;3.73;74.55;92782.75;4880401;28;20147;-85
2021/03/17 16:16:30;;;;;;;21.52;15.68;;;;;;;3.98;75.01;92804.56;4897541;29;20044;-86
2021/03/17 16:19:01;;;;;;;19.25;13.90;;;;;;;3.87;75.21;92809.84;4883366;28;20043;-88
2021/03/17 16:21:26;;;;;;;15.15;12.95;;;;;;;4.07;74.51;92829.06;4913152;29;20095;-85
2021/03/17 16:23:54;;;;;;;14.48;10.93;;;;;;;3.70;73.91;92801.59;4884036;29;20048;-84
2021/03/17 16:26:22;;;;;;;16.20;12.63;;;;;;;3.69;74.89;92792.19;4894973;28;20040;-87
2021/03/17 16:28:57;;;;;;;17.42;13.85;;;;;;;3.65;75.93;92801.63;4884232;28;20043;-84
2021/03/17 16:31:23;;;;;;;18.17;13.55;;;;;;;3.83;75.96;92829.72;4883604;29;20119;-85
2021/03/17 16:33:48;;;;;;;15.10;11.23;;;;;;;3.92;76.42;92858.69;4897685;29;20036;-83
2021/03/17 16:36:14;;;;;;;15.38;12.50;;;;;;;3.90;75.59;92855.56;4900536;28;20862;-84
2021/03/17 16:38:39;;;;;;;20.77;15.45;;;;;;;3.93;75.79;92847.97;4888455;28;20100;-84
2021/03/17 16:41:07;;;;;;;18.27;14.45;;;;;;;3.69;75.99;92828.75;4847151;29;20160;-84
2021/03/17 16:43:32;;;;;;;17.35;13.93;;;;;;;3.99;75.15;92858.41;4887663;29;20454;-84
2021/03/17 16:46:04;;;;;;;17.58;12.50;;;;;;;3.50;75.10;92809.53;4887125;28;20063;-84
2021/03/17 16:48:33;;;;;;;19.65;15.00;;;;;;;3.54;76.14;92800.09;4908542;29;20227;-86
2021/03/17 16:51:02;;;;;;;20.05;15.20;;;;;;;3.64;75.90;92815.72;4877211;29;20051;-85
2021/03/17 16:53:35;;;;;;;20.08;14.73;;;;;;;3.63;76.30;92808.94;4888050;29;20643;-86
2021/03/17 16:56:04;;;;;;;23.27;14.85;;;;;;;3.70;75.37;92798.97;4864621;28;20049;-82
2021/03/17 16:58:36;;;;;;;26.05;18.73;;;;;;;3.68;75.58;92842.09;4853108;29;20043;-86
2021/03/17 17:01:02;;;;;;;61.20;33.88;;;;;;;3.81;75.60;92873.63;4912411;28;21057;-85
2021/03/17 17:03:35;;;;;;;37.78;23.48;;;;;;;3.75;75.18;92848.59;4897904;29;20583;-89
2021/03/17 17:06:06;;;;;;;27.75;20.30;;;;;;;3.82;76.35;92877.03;4900410;28;20772;-87
2021/03/17 17:08:32;;;;;;;79.32;42.92;;;;;;;3.50;76.61;92819.97;4856692;29;20772;-92
2021/03/17 17:11:01;;;;;;;25.60;16.88;;;;;;;3.89;75.65;92901.84;4854209;28;20087;-86
2021/03/17 17:13:27;;;;;;;33.45;21.10;;;;;;;3.59;75.28;92856.75;4887557;28;20044;-86
2021/03/17 17:15:55;;;;;;;29.80;20.63;;;;;;;3.56;75.83;92860.72;4881401;28;20095;-85
2021/03/17 17:18:21;;;;;;;30.75;20.77;;;;;;;3.65;76.64;92864.31;4907599;29;20115;-87
2021/03/17 17:20:47;;;;;;;28.77;17.50;;;;;;;3.39;76.82;92842.75;4884037;28;20044;-86
2021/03/17 17:23:12;;;;;;;29.50;22.30;;;;;;;3.75;77.67;92885.19;4881245;29;20052;-90
2021/03/17 17:25:43;;;;;;;31.80;22.98;;;;;;;3.41;77.16;92838.03;4892890;29;20128;-86
2021/03/17 17:28:15;;;;;;;27.27;18.10;;;;;;;3.43;76.51;92830.72;4888962;28;20068;-89
2021/03/17 17:30:48;;;;;;;23.60;17.50;;;;;;;3.42;77.28;92838.81;4896816;29;20076;-87
2021/03/17 17:33:14;;;;;;;29.40;20.77;;;;;;;3.66;77.23;92868.50;4888259;28;20048;-88
2021/03/17 17:35:42;;;;;;;27.88;21.10;;;;;;;3.72;76.93;92872.63;4898276;28;20047;-83
2021/03/17 17:38:09;;;;;;;20.48;15.35;;;;;;;3.36;76.63;92830.22;4892223;28;20107;-85
2021/03/17 17:40:37;;;;;;;37.90;17.52;;;;;;;3.63;77.15;92866.41;4896522;28;20036;-84
2021/03/17 17:43:04;;;;;;;22.92;17.92;;;;;;;3.96;77.53;92911.22;4892017;28;20083;-85
2021/03/17 17:45:30;;;;;;;16.30;12.75;;;;;;;3.83;77.01;92904.72;4899882;29;20032;-85
2021/03/17 17:47:56;;;;;;;18.67;13.65;;;;;;;3.98;77.20;92928.19;4889672;29;20052;-85
2021/03/17 17:50:25;;;;;;;15.52;13.13;;;;;;;3.83;77.22;92905.50;4897566;28;20048;-87
2021/03/17 17:53:03;;;;;;;19.27;15.73;;;;;;;4.00;77.16;92926.09;4892864;29;20506;-86
2021/03/17 17:55:34;;;;;;;13.43;11.00;;;;;;;3.36;76.36;92847.72;4900673;28;20040;-88
2021/03/17 17:58:00;;;;;;;13.38;11.18;;;;;;;3.57;76.77;92864.84;4909486;28;20072;-84
2021/03/17 18:00:26;;;;;;;14.70;12.02;;;;;;;3.88;75.85;92931.63;4901643;29;20604;-85
2021/03/17 18:02:52;;;;;;;19.67;16.50;;;;;;;3.94;76.23;92927.16;4886020;28;20130;-86
2021/03/17 18:05:19;;;;;;;27.00;20.77;;;;;;;3.85;76.25;92900.81;4870788;28;20052;-88
2021/03/17 18:07:53;;;;;;;21.70;16.80;;;;;;;3.82;75.44;92885.66;4901646;28;20052;-85
2021/03/17 18:10:24;;;;;;;16.38;13.55;;;;;;;3.91;75.17;92920.63;4894214;28;20052;-87
2021/03/17 18:12:54;;;;;;;14.68;11.75;;;;;;;3.56;75.39;92879.00;4899146;29;20135;-85
2021/03/17 18:15:22;;;;;;;19.38;13.88;;;;;;;3.53;75.90;92878.72;4894088;29;20106;-85
2021/03/17 18:32:08;;;;;;;18.90;12.02;;;;;;;3.58;76.52;92905.59;4921398;23;20047;-88
2021/03/17 18:34:37;;;;;;;20.88;13.93;;;;;;;3.59;77.42;92901.97;4972267;28;20050;-89
2021/03/17 18:37:02;;;;;;;23.58;15.93;;;;;;;3.63;76.71;92902.97;4970539;28;20078;-86
2021/03/17 18:39:28;;;;;;;21.83;15.63;;;;;;;4.07;76.24;92957.16;4987356;28;20151;-88
2021/03/17 18:41:54;;;;;;;22.23;14.40;;;;;;;4.01;75.29;92950.41;4970182;28;20129;-86
2021/03/17 18:44:22;;;;;;;16.77;11.98;;;;;;;4.12;76.12;92970.22;4970102;28;20137;-88
2021/03/17 18:46:48;;;;;;;27.42;17.08;;;;;;;3.70;75.48;92900.88;4934846;28;20227;-91
2021/03/17 18:49:16;;;;;;;30.02;19.25;;;;;;;3.81;75.51;92930.38;4940682;28;20229;-89
2021/03/17 18:51:48;;;;;;;31.38;16.10;;;;;;;3.93;75.12;92960.34;4954458;28;20058;-85
2021/03/17 18:54:13;;;;;;;44.55;21.92;;;;;;;4.05;75.30;92965.28;4894129;28;20051;-85
2021/03/17 18:56:40;;;;;;;33.97;16.73;;;;;;;3.91;75.18;92931.09;4949771;28;20105;-89
2021/03/17 18:59:08;;;;;;;32.38;17.63;;;;;;;3.96;74.63;92942.59;4951079;28;20121;-88
2021/03/17 19:01:39;;;;;;;27.98;17.17;;;;;;;3.71;74.53;92914.72;4922986;28;20050;-89
2021/03/17 19:04:13;;;;;;;25.10;14.70;;;;;;;3.92;73.87;92958.78;4950282;28;20137;-87
2021/03/17 19:06:44;;;;;;;25.25;13.63;;;;;;;3.87;74.01;92965.88;4968805;28;20118;-88
2021/03/17 19:09:26;;;;;;;28.15;17.00;;;;;;;4.04;74.04;92981.22;4938940;28;20050;-90
2021/03/17 19:11:52;;;;;;;34.60;19.23;;;;;;;3.83;74.95;92954.38;4946261;28;20534;-87
2021/03/17 19:14:30;;;;;;;;;;;;;;;;;;;;;
2021/03/17 19:17:01;;;;;;;23.95;15.55;;;;;;;4.10;73.92;92991.41;4938503;28;20402;-86
2021/03/17 19:19:30;;;;;;;24.63;15.18;;;;;;;3.69;73.52;92937.72;4882665;28;20151;-89
2021/03/17 19:21:56;;;;;;;21.20;15.02;;;;;;;3.96;73.61;92979.94;4926334;28;20091;-89
2021/03/17 19:24:24;;;;;;;15.27;12.13;;;;;;;3.57;74.14;92938.00;4949045;28;20046;-88
2021/03/17 19:26:50;;;;;;;15.88;12.90;;;;;;;3.66;74.25;92943.47;4943598;28;21265;-88
2021/03/17 19:29:15;;;;;;;12.73;10.75;;;;;;;3.71;73.34;92946.09;4949222;28;20110;-91
2021/03/17 19:31:44;;;;;;;14.13;10.98;;;;;;;3.88;73.39;92949.91;4915628;28;20667;-87
2021/03/17 19:34:18;;;;;;;17.42;12.45;;;;;;;3.93;73.79;92962.19;4905952;28;20050;-87
2021/03/17 19:36:44;;;;;;;14.38;11.70;;;;;;;3.73;73.29;92930.91;4920836;28;20058;-89
2021/03/17 19:42:33;;;;;;;15.52;11.63;;;;;;;4.10;72.96;92985.41;4898231;28;20062;-87
2021/03/17 19:45:29;;;;;;;16.17;12.80;;;;;;;4.02;72.84;92960.56;4878535;28;20397;-88
2021/03/17 19:47:56;;;;;;;15.65;11.40;;;;;;;3.93;72.61;92962.97;4933912;28;20115;-86
2021/03/17 19:50:26;;;;;;;17.65;11.60;;;;;;;4.13;72.27;92980.41;4931650;28;20518;-88
2021/03/17 19:52:56;;;;;;;13.68;10.75;;;;;;;3.92;72.67;92958.78;4927460;28;20122;-89
2021/03/17 19:55:32;;;;;;;12.88;10.70;;;;;;;4.09;71.98;92978.59;4875978;28;20049;-89
2021/03/17 19:57:58;;;;;;;12.93;9.00;;;;;;;4.13;72.11;92998.72;4940711;28;20027;-88
2021/03/17 20:00:26;;;;;;;21.25;12.65;;;;;;;3.93;73.06;92959.56;4965899;28;20045;-85
2021/03/17 20:02:52;;;;;;;13.02;10.48;;;;;;;4.04;72.28;92973.38;4947198;28;20038;-88
2021/03/17 20:05:30;;;;;;;15.65;11.73;;;;;;;4.00;72.58;92964.53;4862703;28;20618;-88
2021/03/17 20:07:56;;;;;;;15.02;12.13;;;;;;;4.06;72.34;92990.34;4894235;28;20149;-84
2021/03/17 20:10:25;;;;;;;19.17;13.40;;;;;;;4.23;72.75;93026.66;4924486;28;20434;-93
2021/03/17 20:13:14;;;;;;;17.77;12.63;;;;;;;3.95;72.56;92962.72;4911786;28;20523;-89
2021/03/17 20:15:58;;;;;;;20.75;15.65;;;;;;;4.20;72.78;93012.25;4907934;28;20077;-89
2021/03/17 20:18:26;;;;;;;16.67;11.85;;;;;;;3.86;72.81;92970.31;4947358;28;20051;-86
2021/03/17 20:21:02;;;;;;;15.25;11.85;;;;;;;4.02;73.01;92988.53;4917074;28;20039;-89
2021/03/17 20:23:28;;;;;;;14.35;10.93;;;;;;;4.04;72.56;92997.69;4970412;28;20594;-86
2021/03/17 20:26:06;;;;;;;16.23;12.32;;;;;;;4.03;71.50;93005.81;4906214;28;20162;-88
2021/03/17 20:31:34;;;;;;;14.35;11.50;;;;;;;3.79;72.01;92969.03;4909308;28;20101;-87
2021/03/17 20:34:01;;;;;;;20.10;15.10;;;;;;;3.89;72.74;92990.69;4941553;28;20082;-87
2021/03/17 20:36:27;;;;;;;17.67;13.23;;;;;;;4.28;73.43;93039.72;4951330;28;20486;-86
2021/03/17 20:39:05;;;;;;;17.33;12.73;;;;;;;4.36;73.12;93037.31;4905794;28;20054;-88
2021/03/17 20:41:51;;;;;;;17.17;13.25;;;;;;;4.33;72.87;93047.53;4928273;28;20047;-88
2021/03/17 20:44:25;;;;;;;16.88;13.05;;;;;;;3.97;72.61;92980.72;4871651;28;20108;-87
2021/03/17 20:46:53;;;;;;;17.73;13.15;;;;;;;4.10;72.47;93006.31;4934600;28;20062;-88
2021/03/17 20:49:19;;;;;;;15.02;12.00;;;;;;;4.19;73.21;93041.31;4933137;28;20141;-86
2021/03/17 20:51:45;;;;;;;16.48;12.57;;;;;;;3.90;73.52;92986.25;4946049;28;21379;-85
2021/03/17 20:54:14;;;;;;;16.83;12.52;;;;;;;4.04;73.62;93018.63;4938957;28;21104;-88
2021/03/17 20:56:39;;;;;;;13.35;11.05;;;;;;;4.08;72.99;93016.25;4949992;28;20046;-87
2021/03/17 20:59:12;;;;;;;14.52;11.85;;;;;;;4.16;73.29;93032.16;4943794;28;20101;-86
2021/03/17 21:01:44;;;;;;;12.88;11.15;;;;;;;4.00;72.92;93008.97;4932400;28;20679;-87
2021/03/17 21:04:17;;;;;;;13.65;11.20;;;;;;;4.24;73.34;93044.69;4955348;28;20563;-85
2021/03/17 21:07:07;;;;;;;16.33;13.05;;;;;;;4.04;74.15;93025.69;4959029;28;20030;-89
2021/03/17 21:09:35;;;;;;;15.75;12.02;;;;;;;3.99;73.93;93030.91;4930472;28;20078;-88
2021/03/17 21:12:09;;;;;;;17.35;13.70;;;;;;;4.11;74.34;93049.69;4917633;28;20496;-87
2021/03/17 21:14:37;;;;;;;16.35;13.20;;;;;;;4.01;74.15;93029.59;4938035;28;20261;-87
2021/03/17 21:17:06;;;;;;;15.70;12.90;;;;;;;4.08;74.77;93051.03;4937877;28;20055;-88
2021/03/17 21:19:34;;;;;;;22.65;16.02;;;;;;;3.76;74.54;93014.00;4944021;28;20051;-87
2021/03/17 21:22:03;;;;;;;23.92;16.63;;;;;;;4.00;74.56;93027.25;4947588;28;20121;-87
2021/03/17 21:24:29;;;;;;;38.08;22.95;;;;;;;4.18;74.03;93060.66;4953216;28;20539;-86
2021/03/17 21:26:55;;;;;;;52.92;30.83;;;;;;;4.24;74.18;93062.22;4945522;28;20132;-87
2021/03/17 21:29:20;;;;;;;49.33;27.88;;;;;;;3.75;74.53;92999.38;4941153;28;20054;-87
2021/03/17 21:31:46;;;;;;;28.45;18.83;;;;;;;4.22;73.72;93069.53;4950616;28;20125;-88
2021/03/17 21:34:15;;;;;;;18.75;14.75;;;;;;;4.04;73.20;93062.28;4927715;28;20292;-88
2021/03/17 21:36:48;;;;;;;18.92;14.25;;;;;;;3.98;73.99;93047.66;4949800;28;20077;-87
2021/03/17 21:39:13;;;;;;;19.08;14.95;;;;;;;4.04;74.39;93060.44;4953806;28;20130;-87
2021/03/17 21:41:41;;;;;;;18.70;13.60;;;;;;;3.97;73.57;93049.47;4951889;28;20061;-87
2021/03/17 21:44:07;;;;;;;17.73;14.60;;;;;;;3.85;73.51;93036.72;4949166;28;20523;-88
2021/03/17 21:46:32;;;;;;;20.20;15.63;;;;;;;4.06;74.27;93070.63;4917119;28;20063;-86
2021/03/17 21:49:02;;;;;;;23.15;16.65;;;;;;;3.74;73.87;93016.88;4929415;28;20046;-87
2021/03/17 21:51:27;;;;;;;21.08;15.40;;;;;;;3.97;73.37;93053.91;4958593;28;20053;-84
2021/03/17 21:53:53;;;;;;;22.10;16.77;;;;;;;4.12;74.43;93061.72;4950999;28;20385;-88
2021/03/17 21:56:19;;;;;;;20.10;14.95;;;;;;;4.16;73.91;93074.00;4951745;28;20039;-87
2021/03/17 21:58:44;;;;;;;20.77;14.60;;;;;;;3.81;74.15;93024.44;4926970;28;20135;-86
2021/03/17 22:01:12;;;;;;;17.58;12.43;;;;;;;3.76;73.01;93014.00;4950347;28;20411;-87
2021/03/17 22:03:40;;;;;;;17.10;13.50;;;;;;;3.88;73.42;93041.41;4953158;28;20045;-87
2021/03/17 22:06:08;;;;;;;18.02;14.65;;;;;;;3.98;73.26;93055.47;4949498;28;20043;-87
2021/03/17 22:08:42;;;;;;;18.88;14.70;;;;;;;3.74;73.38;93014.25;4945472;28;20070;-88
2021/03/17 22:11:08;;;;;;;16.98;12.55;;;;;;;3.67;72.44;93024.19;4947860;28;20199;-87
2021/03/17 22:13:37;;;;;;;22.38;16.27;;;;;;;3.72;74.23;93032.03;4951404;28;20046;-88
2021/03/17 22:16:03;;;;;;;21.95;16.60;;;;;;;3.90;74.29;93055.00;4950571;28;20031;-88
2021/03/17 22:18:44;;;;;;;21.30;17.30;;;;;;;3.74;74.10;93023.94;4951784;28;20035;-88
2021/03/17 22:21:11;;;;;;;24.25;16.25;;;;;;;4.18;73.28;93081.56;4954971;28;20438;-88
2021/03/17 22:23:42;;;;;;;22.38;16.48;;;;;;;4.05;73.41;93061.22;4950746;28;20097;-86
2021/03/17 22:26:14;;;;;;;22.05;16.05;;;;;;;3.96;72.95;93057.59;4950303;28;20049;-86
2021/03/17 22:28:39;;;;;;;23.00;16.80;;;;;;;3.72;73.51;93029.41;4917234;28;20046;-88
2021/03/17 22:31:06;;;;;;;24.02;16.55;;;;;;;3.88;73.22;93040.63;4955456;28;20085;-88
2021/03/17 22:33:37;;;;;;;24.13;16.63;;;;;;;3.79;73.44;93032.53;4951056;28;20050;-88
2021/03/17 22:36:04;;;;;;;23.10;15.82;;;;;;;4.03;73.56;93061.50;4948058;28;20047;-88
2021/03/17 22:38:37;;;;;;;21.42;16.33;;;;;;;3.97;73.78;93057.31;4947305;28;20054;-88
2021/03/17 22:41:07;;;;;;;25.73;17.52;;;;;;;4.19;73.11;93091.78;4947453;28;20384;-88
2021/03/17 22:43:33;;;;;;;21.08;15.68;;;;;;;3.93;73.39;93083.22;4953490;28;20134;-85
2021/03/17 22:46:00;;;;;;;22.80;15.73;;;;;;;3.68;73.21;93036.22;4953677;28;20031;-90
2021/03/17 22:48:26;;;;;;;25.58;15.95;;;;;;;3.75;73.11;93033.34;4956112;28;20026;-86
2021/03/17 22:50:57;;;;;;;22.30;16.85;;;;;;;3.99;73.49;93077.97;4911146;28;20109;-89
2021/03/17 22:53:28;;;;;;;22.15;16.02;;;;;;;3.98;72.80;93071.16;4931542;28;20085;-89
2021/03/17 22:55:54;;;;;;;22.73;16.48;;;;;;;4.03;72.96;93068.53;4943825;28;20035;-90
2021/03/17 22:58:23;;;;;;;23.30;16.98;;;;;;;4.10;72.30;93079.53;4945323;28;20086;-91
2021/03/17 23:00:56;;;;;;;21.00;15.55;;;;;;;4.20;72.84;93097.78;4952152;28;20022;-88
2021/03/17 23:03:22;;;;;;;23.15;16.05;;;;;;;3.80;72.44;93049.78;4950807;28;20043;-88
2021/03/17 23:05:48;;;;;;;21.92;17.08;;;;;;;4.01;72.39;93075.88;4941301;28;20046;-88
2021/03/17 23:08:44;;;;;;;19.13;14.07;;;;;;;4.13;71.81;93102.50;4891973;28;20604;-89
2021/03/17 23:11:47;;;;;;;18.67;14.60;;;;;;;3.72;70.82;93026.78;4937365;28;20049;-89
2021/03/17 23:14:20;;;;;;;16.52;13.15;;;;;;;3.69;70.04;93032.56;4901226;28;20055;-89
2021/03/17 23:16:48;;;;;;;17.23;13.15;;;;;;;4.14;70.08;93098.84;4903780;28;20118;-89
2021/03/17 23:19:24;;;;;;;21.95;15.35;;;;;;;4.12;69.91;93109.56;4945168;28;20054;-90
2021/03/17 23:21:56;;;;;;;21.25;15.20;;;;;;;3.76;70.21;93042.75;4978587;28;20066;-91
2021/03/17 23:25:07;;;;;;;20.73;15.25;;;;;;;4.29;69.76;93098.81;4966624;28;20042;-88
2021/03/17 23:27:45;;;;;;;18.63;14.50;;;;;;;4.04;69.09;93059.66;4943440;28;20051;-88
2021/03/17 23:30:32;;;;;;;16.48;13.65;;;;;;;4.12;68.69;93062.50;4956153;28;20098;-89
2021/03/17 23:33:01;;;;;;;20.55;15.07;;;;;;;4.34;68.68;93085.72;4946628;28;20046;-87
2021/03/17 23:35:30;;;;;;;21.27;14.05;;;;;;;4.32;67.89;93093.03;4958477;28;20054;-88
2021/03/17 23:38:01;;;;;;;21.38;14.70;;;;;;;4.33;68.03;93089.38;4948492;28;20570;-88
2021/03/17 23:40:58;;;;;;;;;;;;;;;;;;;;;
2021/03/17 23:43:30;;;;;;;19.65;13.75;;;;;;;4.26;67.09;93063.50;4916302;28;20043;-87
2021/03/17 23:46:25;;;;;;;17.70;12.70;;;;;;;4.47;66.54;93100.84;4931052;28;20043;-90
2021/03/17 23:49:02;;;;;;;15.80;11.82;;;;;;;4.07;66.75;93038.19;4973330;28;20046;-88
2021/03/17 23:51:41;;;;;;;15.07;11.63;;;;;;;4.29;66.26;93060.38;4951503;28;20054;-88
2021/03/17 23:54:27;;;;;;;13.15;10.57;;;;;;;4.04;66.04;93034.31;4933046;28;20042;-88
2021/03/17 23:57:28;;;;;;;;;;;;;;;4.57;66.29;93106.03;4875565;28;20158;-87
